Time;durP1;ratioP1;P1;durP2;ratioP2;P2;SDS_P1;SDS_P2;PMS_P1;PMS_P2;Temp;Humidity;BMP_temperature;BMP_pressure;BME280_temperature;BME280_humidity;BME280_pressure;Samples;Min_cycle;Max_cycle;Signal;HPM_P1;HPM_P2
2022/02/22 00:00:14;;;;;;;7.93;1.90;;;;;;;6.93;64.68;99723.88;1087483;54;20034;-77
2022/02/22 00:01:19;;;;;;;6.47;1.70;;;;;;;6.99;64.67;99718.03;1087327;46;20034;-79
2022/02/22 00:02:20;;;;;;;7.63;1.70;;;;;;;6.92;64.63;99731.97;1088230;46;20061;-77
2022/02/22 00:03:25;;;;;;;6.90;2.25;;;;;;;7.01;64.60;99723.22;1086395;47;20026;-78
2022/02/22 00:04:32;;;;;;;8.77;1.85;;;;;;;6.95;64.27;99727.25;1086343;54;20058;-79
2022/02/22 00:05:38;;;;;;;9.23;1.90;;;;;;;6.93;64.68;99731.00;1086781;54;20145;-77
2022/02/22 00:06:39;;;;;;;7.75;1.90;;;;;;;6.92;64.43;99726.66;1086570;54;20095;-77
2022/02/22 00:07:44;;;;;;;5.57;1.67;;;;;;;7.02;64.29;99744.34;1086047;54;20026;-79
2022/02/22 00:08:48;;;;;;;5.80;1.70;;;;;;;6.99;64.75;99739.28;1086605;54;20178;-78
2022/02/22 00:09:52;;;;;;;8.48;1.73;;;;;;;7.00;64.52;99735.66;1086579;54;20073;-79
2022/02/22 00:10:53;;;;;;;6.38;1.80;;;;;;;6.91;64.49;99744.41;1086325;54;20038;-78
2022/02/22 00:11:58;;;;;;;9.82;2.25;;;;;;;6.86;64.25;99743.97;1086954;46;20039;-78
2022/02/22 00:12:59;;;;;;;8.15;2.22;;;;;;;6.92;64.41;99748.75;1086184;54;20061;-78
2022/02/22 00:14:03;;;;;;;6.43;1.77;;;;;;;6.93;64.41;99746.94;1084948;54;20048;-78
2022/02/22 00:15:06;;;;;;;6.13;1.70;;;;;;;6.94;64.51;99744.16;1084876;54;20070;-78
2022/02/22 00:16:10;;;;;;;9.60;2.28;;;;;;;6.88;64.41;99747.34;1085083;54;20034;-77
2022/02/22 00:17:12;;;;;;;8.48;1.70;;;;;;;6.82;64.23;99758.47;1084745;54;20038;-79
2022/02/22 00:18:16;;;;;;;8.40;1.90;;;;;;;6.85;64.56;99768.84;1085674;39;20886;-78
2022/02/22 00:19:17;;;;;;;8.13;1.98;;;;;;;6.93;64.21;99758.41;1084695;54;20046;-78
2022/02/22 00:20:21;;;;;;;6.78;1.80;;;;;;;6.96;64.24;99754.66;1084261;54;20062;-78
2022/02/22 00:21:23;;;;;;;6.85;1.92;;;;;;;7.00;64.35;99767.56;1084808;54;20065;-78
2022/02/22 00:22:27;;;;;;;7.43;1.70;;;;;;;7.08;63.69;99756.28;1085863;46;20054;-79
2022/02/22 00:23:28;;;;;;;6.32;1.65;;;;;;;6.94;64.08;99768.06;1085866;54;20073;-78
2022/02/22 00:24:36;;;;;;;9.65;1.60;;;;;;;7.02;63.91;99775.41;1085855;54;20073;-78
2022/02/22 00:25:37;;;;;;;8.85;2.00;;;;;;;6.95;64.07;99780.41;1085532;54;20047;-78
2022/02/22 00:26:42;;;;;;;7.97;1.60;;;;;;;7.03;63.83;99772.63;1085764;54;20046;-78
2022/02/22 00:27:44;;;;;;;9.15;1.90;;;;;;;6.99;64.14;99781.81;1085594;54;20125;-77
2022/02/22 00:28:48;;;;;;;9.13;1.88;;;;;;;6.97;64.03;99781.13;1086783;31;20636;-78
2022/02/22 00:29:50;;;;;;;6.43;2.17;;;;;;;7.07;63.93;99778.53;1085790;54;20034;-77
2022/02/22 00:30:54;;;;;;;7.65;1.70;;;;;;;6.99;64.25;99784.47;1086021;54;20046;-78
2022/02/22 00:31:56;;;;;;;8.68;2.20;;;;;;;6.93;64.57;99782.34;1085718;54;20042;-78
2022/02/22 00:33:01;;;;;;;11.32;2.80;;;;;;;6.90;64.89;99787.88;1085997;54;20046;-78
2022/02/22 00:34:05;;;;;;;6.68;1.40;;;;;;;7.03;64.65;99782.44;1086335;54;20042;-78
2022/02/22 00:35:09;;;;;;;9.52;1.88;;;;;;;6.91;64.66;99784.25;1085325;54;20038;-77
2022/02/22 00:36:13;;;;;;;7.50;2.03;;;;;;;6.93;64.78;99792.97;1087340;39;20502;-78
2022/02/22 00:37:15;;;;;;;11.40;1.90;;;;;;;6.85;65.21;99796.25;1085094;54;20050;-78
2022/02/22 00:38:20;;;;;;;5.53;1.60;;;;;;;7.03;64.89;99795.72;1085558;54;20062;-78
2022/02/22 00:39:22;;;;;;;8.48;2.10;;;;;;;6.97;64.72;99799.72;1085781;54;20040;-78
2022/02/22 00:40:29;;;;;;;8.00;1.70;;;;;;;6.92;64.52;99801.06;1086230;54;20038;-79
2022/02/22 00:41:31;;;;;;;8.10;1.73;;;;;;;6.89;64.75;99802.19;1086049;54;20035;-78
2022/02/22 00:42:35;;;;;;;12.43;2.30;;;;;;;6.86;64.81;99802.41;1086040;54;20049;-77
2022/02/22 00:43:37;;;;;;;7.70;1.92;;;;;;;6.89;64.58;99802.19;1086134;54;20065;-78
2022/02/22 00:44:42;;;;;;;10.50;2.05;;;;;;;6.96;64.83;99807.81;1085817;54;20046;-78
2022/02/22 00:45:44;;;;;;;6.38;1.75;;;;;;;6.87;64.96;99809.44;1085897;54;20038;-79
2022/02/22 00:46:48;;;;;;;7.75;2.08;;;;;;;7.02;64.55;99813.47;1085997;54;20065;-78
2022/02/22 00:47:50;;;;;;;6.20;1.70;;;;;;;7.07;64.52;99813.06;1085967;54;20069;-79
2022/02/22 00:48:54;;;;;;;8.30;1.77;;;;;;;6.96;64.69;99823.75;1086345;54;20042;-78
2022/02/22 00:49:55;;;;;;;5.97;1.50;;;;;;;7.09;64.42;99828.88;1086382;54;20038;-78
2022/02/22 00:51:00;;;;;;;9.88;1.63;;;;;;;6.97;64.86;99828.97;1085967;54;20038;-79
2022/02/22 00:52:01;;;;;;;6.47;1.77;;;;;;;6.89;65.31;99827.88;1086491;54;20057;-78
2022/02/22 00:53:06;;;;;;;7.38;1.90;;;;;;;6.80;65.30;99825.03;1086561;54;20031;-77
2022/02/22 00:54:07;;;;;;;6.28;1.67;;;;;;;6.89;65.35;99826.09;1087648;54;20038;-77
2022/02/22 00:55:13;;;;;;;15.35;3.05;;;;;;;6.82;65.87;99830.19;1087882;54;20034;-77
2022/02/22 00:56:21;;;;;;;6.80;1.95;;;;;;;6.98;65.48;99841.28;1087807;54;20034;-78
2022/02/22 00:57:23;;;;;;;7.20;1.60;;;;;;;6.89;65.57;99841.19;1087211;54;20046;-79
2022/02/22 00:58:27;;;;;;;7.22;1.90;;;;;;;6.86;65.70;99850.25;1086598;54;20022;-78
2022/02/22 00:59:31;;;;;;;9.73;2.28;;;;;;;6.90;65.67;99842.88;1086823;54;20034;-78
2022/02/22 01:00:33;;;;;;;8.02;2.15;;;;;;;6.99;65.73;99832.31;1086519;54;20836;-81
2022/02/22 01:01:38;;;;;;;9.55;2.15;;;;;;;6.76;66.31;99844.00;1086471;54;20545;-79
2022/02/22 01:02:39;;;;;;;7.93;2.42;;;;;;;6.87;65.95;99838.66;1086168;54;20042;-79
2022/02/22 01:03:44;;;;;;;5.95;1.63;;;;;;;6.74;65.97;99843.28;1086086;54;20085;-80
2022/02/22 01:04:46;;;;;;;7.63;2.22;;;;;;;6.83;65.87;99846.03;1086069;54;20038;-78
2022/02/22 01:05:50;;;;;;;5.47;1.60;;;;;;;6.82;66.15;99854.13;1086807;39;20482;-78
2022/02/22 01:06:51;;;;;;;6.15;1.73;;;;;;;6.72;66.54;99857.53;1086310;54;20042;-78
2022/02/22 01:07:56;;;;;;;6.85;1.30;;;;;;;6.90;65.88;99869.44;1086314;54;20057;-80
2022/02/22 01:08:59;;;;;;;7.78;1.80;;;;;;;6.74;66.15;99868.03;1086070;54;20049;-81
2022/02/22 01:10:04;;;;;;;10.30;1.88;;;;;;;6.78;66.03;99863.31;1086694;31;20526;-80
2022/02/22 01:11:05;;;;;;;6.55;1.73;;;;;;;6.77;66.13;99867.78;1085918;54;20125;-79
2022/02/22 01:12:13;;;;;;;7.25;1.80;;;;;;;6.90;65.78;99864.97;1086062;54;20069;-79
2022/02/22 01:13:17;;;;;;;6.90;1.80;;;;;;;6.79;65.91;99857.88;1086158;54;20039;-79
2022/02/22 01:14:18;;;;;;;8.38;1.75;;;;;;;6.79;66.20;99865.00;1086085;54;20042;-78
2022/02/22 01:15:22;;;;;;;10.65;2.40;;;;;;;6.67;66.13;99861.53;1085862;54;20130;-78
2022/02/22 01:16:24;;;;;;;7.38;1.73;;;;;;;6.84;65.85;99862.81;1086247;46;20034;-79
2022/02/22 01:17:28;;;;;;;8.35;1.85;;;;;;;6.71;66.08;99863.81;1085832;54;20613;-78
2022/02/22 01:18:30;;;;;;;7.95;1.63;;;;;;;6.77;65.96;99862.47;1085975;54;20042;-79
2022/02/22 01:19:34;;;;;;;11.35;2.85;;;;;;;6.79;65.81;99870.34;1085703;54;20034;-77
2022/02/22 01:20:36;;;;;;;8.48;2.00;;;;;;;6.88;65.45;99874.91;1085906;54;20043;-81
2022/02/22 01:21:40;;;;;;;8.00;1.92;;;;;;;6.68;65.88;99863.22;1086150;54;20038;-80
2022/02/22 01:22:46;;;;;;;10.50;2.55;;;;;;;6.63;65.85;99868.06;1086133;54;20872;-78
2022/02/22 01:23:48;;;;;;;7.72;2.00;;;;;;;6.63;65.96;99879.53;1087245;54;20043;-78
2022/02/22 01:24:52;;;;;;;11.63;2.10;;;;;;;6.54;66.12;99878.47;1088200;46;20041;-77
2022/02/22 01:25:56;;;;;;;7.95;2.15;;;;;;;6.55;66.00;99884.59;1087523;46;20053;-78
2022/02/22 01:27:01;;;;;;;6.95;1.55;;;;;;;6.61;66.04;99878.81;1087104;46;20038;-78
2022/02/22 01:28:05;;;;;;;5.63;1.48;;;;;;;6.78;65.32;99885.41;1086415;54;20061;-78
2022/02/22 01:29:09;;;;;;;7.05;1.40;;;;;;;6.82;65.64;99886.88;1087124;54;20030;-77
2022/02/22 01:30:11;;;;;;;5.55;1.30;;;;;;;6.74;65.74;99877.81;1087505;47;20046;-77
2022/02/22 01:31:15;;;;;;;7.15;2.08;;;;;;;6.59;65.77;99890.50;1086853;54;20073;-80
2022/02/22 01:32:17;;;;;;;9.70;2.00;;;;;;;6.54;66.02;99893.53;1086542;54;20061;-78
2022/02/22 01:33:21;;;;;;;7.75;1.63;;;;;;;6.75;65.85;99890.13;1087152;54;20039;-78
2022/02/22 01:34:23;;;;;;;5.00;1.88;;;;;;;6.63;65.74;99890.16;1086831;54;20042;-78
2022/02/22 01:35:27;;;;;;;9.52;2.00;;;;;;;6.51;66.53;99889.31;1087426;46;20042;-79
2022/02/22 01:36:29;;;;;;;6.47;1.73;;;;;;;6.59;66.21;99895.81;1086362;54;20061;-79
2022/02/22 01:37:33;;;;;;;8.02;1.77;;;;;;;6.44;66.53;99895.22;1085918;54;20066;-78
2022/02/22 01:38:34;;;;;;;8.50;2.33;;;;;;;6.46;66.92;99906.59;1086189;54;20042;-78
2022/02/22 01:39:38;;;;;;;8.13;2.42;;;;;;;6.51;66.66;99905.25;1086192;54;20061;-78
2022/02/22 01:40:40;;;;;;;7.93;1.90;;;;;;;6.63;65.97;99906.09;1085678;54;20034;-78
2022/02/22 01:41:47;;;;;;;9.82;1.80;;;;;;;6.56;66.38;99907.53;1087945;39;20495;-78
2022/02/22 01:42:51;;;;;;;7.40;1.88;;;;;;;6.46;66.96;99915.41;1085102;54;20038;-79
2022/02/22 01:43:56;;;;;;;8.68;1.90;;;;;;;6.37;67.54;99909.00;1086192;31;20624;-78
2022/02/22 01:45:00;;;;;;;7.82;1.75;;;;;;;6.44;67.11;99914.69;1085110;54;20038;-77
2022/02/22 01:46:02;;;;;;;6.53;1.60;;;;;;;6.36;67.63;99914.44;1088007;31;20633;-79
2022/02/22 01:47:08;;;;;;;7.43;1.92;;;;;;;6.32;67.95;99913.84;1086018;54;20054;-78
2022/02/22 01:48:09;;;;;;;10.40;1.95;;;;;;;6.47;67.38;99910.94;1086110;54;20038;-78
2022/02/22 01:49:13;;;;;;;6.38;1.70;;;;;;;6.36;67.96;99912.63;1087561;46;20042;-77
2022/02/22 01:50:15;;;;;;;7.70;1.70;;;;;;;6.46;67.74;99911.91;1086500;54;20061;-78
2022/02/22 01:51:19;;;;;;;7.10;2.22;;;;;;;6.36;68.16;99912.63;1086951;54;20058;-78
2022/02/22 01:52:21;;;;;;;9.75;2.10;;;;;;;6.42;67.81;99913.97;1086541;54;20115;-78
2022/02/22 01:53:25;;;;;;;7.50;1.65;;;;;;;6.48;67.55;99909.97;1086128;54;20109;-79
2022/02/22 01:54:27;;;;;;;8.25;1.52;;;;;;;6.34;68.06;99909.25;1086024;54;20053;-78
2022/02/22 01:55:32;;;;;;;8.32;2.10;;;;;;;6.33;68.14;99909.38;1086174;54;20888;-78
2022/02/22 01:56:35;;;;;;;7.25;1.90;;;;;;;6.41;68.03;99909.59;1087064;47;20034;-78
2022/02/22 01:57:40;;;;;;;6.22;1.65;;;;;;;6.24;68.78;99916.22;1086681;54;20037;-77
2022/02/22 01:58:42;;;;;;;5.68;1.50;;;;;;;6.28;68.54;99915.03;1086409;39;20431;-80
2022/02/22 01:59:49;;;;;;;14.85;2.58;;;;;;;6.30;68.71;99922.88;1086050;54;20042;-78
2022/02/22 02:00:51;;;;;;;7.28;1.67;;;;;;;6.13;69.57;99937.50;1085837;54;20081;-79
2022/02/22 02:01:56;;;;;;;11.10;2.45;;;;;;;6.08;69.90;99928.06;1085666;54;20049;-77
2022/02/22 02:02:57;;;;;;;12.80;2.67;;;;;;;5.96;70.67;99931.63;1085958;54;20069;-78
2022/02/22 02:04:05;;;;;;;8.27;1.95;;;;;;;6.09;70.43;99942.19;1086023;54;20061;-78
2022/02/22 02:05:08;;;;;;;8.73;2.40;;;;;;;6.13;70.41;99948.94;1086129;54;20058;-78
2022/02/22 02:06:12;;;;;;;10.55;1.83;;;;;;;6.20;70.03;99947.50;1086485;54;20057;-78
2022/02/22 02:07:14;;;;;;;8.73;1.70;;;;;;;6.03;70.94;99951.47;1086618;47;20034;-77
2022/02/22 02:08:18;;;;;;;7.00;1.80;;;;;;;5.98;71.35;99950.09;1086198;54;20035;-78
2022/02/22 02:09:20;;;;;;;7.38;1.80;;;;;;;6.06;71.14;99953.88;1086453;47;20073;-78
2022/02/22 02:10:24;;;;;;;7.50;1.67;;;;;;;6.06;71.45;99953.88;1086237;54;20038;-78
2022/02/22 02:11:25;;;;;;;7.80;2.10;;;;;;;6.09;71.73;99963.44;1089376;39;20469;-78
2022/02/22 02:12:29;;;;;;;9.43;2.28;;;;;;;6.00;72.03;99980.88;1086242;54;20038;-77
2022/02/22 02:13:31;;;;;;;9.18;2.40;;;;;;;5.90;73.09;99977.22;1087181;39;20191;-78
2022/02/22 02:14:35;;;;;;;7.80;2.17;;;;;;;5.85;73.63;99982.03;1086101;54;20034;-78
2022/02/22 02:15:39;;;;;;;8.13;2.28;;;;;;;5.78;74.17;99987.78;1086318;54;20065;-79
2022/02/22 02:16:44;;;;;;;13.50;2.60;;;;;;;5.65;73.71;99979.06;1086799;47;20035;-79
2022/02/22 02:17:45;;;;;;;8.80;3.05;;;;;;;5.66;73.83;99975.47;1085864;54;20042;-78
2022/02/22 02:18:49;;;;;;;10.98;2.50;;;;;;;5.54;74.32;99977.19;1087309;39;20417;-79
2022/02/22 02:19:51;;;;;;;9.07;1.95;;;;;;;5.56;74.35;99980.59;1085879;54;20034;-77
2022/02/22 02:20:55;;;;;;;12.38;2.00;;;;;;;5.57;74.50;99978.78;1085490;54;20045;-77
2022/02/22 02:22:02;;;;;;;8.25;2.65;;;;;;;5.66;74.48;99978.09;1088920;31;20655;-77
2022/02/22 02:23:03;;;;;;;8.73;2.10;;;;;;;5.58;74.97;99975.16;1085782;54;20081;-78
2022/02/22 02:24:12;;;;;;;8.95;2.42;;;;;;;5.67;74.76;99974.47;1085978;47;20027;-79
2022/02/22 02:25:15;;;;;;;10.65;2.47;;;;;;;5.55;75.15;99962.97;1086241;54;20034;-77
2022/02/22 02:26:19;;;;;;;8.75;2.28;;;;;;;5.47;75.43;99975.97;1085780;54;20058;-77
2022/02/22 02:27:21;;;;;;;6.20;1.65;;;;;;;5.66;74.83;99969.28;1086003;54;20038;-77
2022/02/22 02:28:25;;;;;;;6.10;2.67;;;;;;;5.58;74.70;99970.72;1085910;54;20038;-78
2022/02/22 02:29:31;;;;;;;8.02;1.85;;;;;;;5.50;75.04;99969.56;1085878;54;20042;-77
2022/02/22 02:30:33;;;;;;;9.68;2.67;;;;;;;5.49;75.10;99981.13;1086964;39;20520;-80
2022/02/22 02:31:37;;;;;;;8.00;2.15;;;;;;;5.54;74.82;99981.66;1086555;31;20605;-78
2022/02/22 02:32:39;;;;;;;9.02;2.50;;;;;;;5.69;74.43;99977.84;1085881;54;20043;-77
2022/02/22 02:33:43;;;;;;;6.97;2.03;;;;;;;5.69;74.31;99977.84;1088254;39;20426;-77
2022/02/22 02:34:44;;;;;;;7.05;1.65;;;;;;;5.77;74.18;99983.44;1085631;54;20039;-77
2022/02/22 02:35:49;;;;;;;9.27;1.83;;;;;;;5.82;73.97;99977.78;1085729;54;20107;-78
2022/02/22 02:36:50;;;;;;;6.82;1.63;;;;;;;5.84;73.73;99975.03;1085800;54;20605;-78
2022/02/22 02:37:57;;;;;;;6.07;1.50;;;;;;;5.76;73.97;99988.84;1085518;47;20035;-78
2022/02/22 02:38:59;;;;;;;9.63;2.40;;;;;;;5.63;74.69;99986.28;1085445;54;20061;-78
2022/02/22 02:40:03;;;;;;;9.25;2.53;;;;;;;5.52;74.82;99996.84;1085703;54;20570;-78
2022/02/22 02:41:06;;;;;;;9.02;2.25;;;;;;;5.53;74.75;99995.88;1086258;39;20453;-80
2022/02/22 02:42:10;;;;;;;10.55;3.00;;;;;;;5.52;74.46;99991.53;1086018;54;20046;-79
2022/02/22 02:43:12;;;;;;;8.40;2.28;;;;;;;5.62;74.21;99989.88;1086176;54;20038;-78
2022/02/22 02:44:17;;;;;;;7.97;2.33;;;;;;;5.62;74.28;99992.53;1085961;54;20035;-80
2022/02/22 02:45:19;;;;;;;13.65;2.72;;;;;;;5.57;74.27;100000.00;1085693;54;20042;-77
2022/02/22 02:46:23;;;;;;;9.02;2.20;;;;;;;5.67;73.98;99998.34;1085824;54;20039;-78
2022/02/22 02:47:24;;;;;;;9.00;1.70;;;;;;;5.83;73.44;100000.69;1085466;54;20138;-79
2022/02/22 02:48:29;;;;;;;8.10;2.13;;;;;;;5.68;73.64;99997.38;1085707;54;20026;-81
2022/02/22 02:49:31;;;;;;;7.45;1.92;;;;;;;5.78;73.28;100006.34;1086077;54;20042;-79
2022/02/22 02:50:35;;;;;;;9.77;2.30;;;;;;;5.74;73.11;100004.91;1085978;54;20110;-78
2022/02/22 02:51:37;;;;;;;8.57;2.33;;;;;;;5.72;73.13;100009.47;1085939;54;20043;-78
2022/02/22 02:52:41;;;;;;;10.20;2.25;;;;;;;5.85;72.78;100013.88;1085955;54;20049;-77
2022/02/22 02:53:46;;;;;;;8.25;2.20;;;;;;;5.92;72.50;100015.09;1086049;54;20723;-77
2022/02/22 02:54:50;;;;;;;9.25;2.40;;;;;;;5.73;73.32;100020.91;1085754;39;20671;-79
2022/02/22 02:55:52;;;;;;;7.03;1.80;;;;;;;5.77;72.95;100017.09;1085923;54;20042;-78
2022/02/22 02:56:56;;;;;;;8.60;1.88;;;;;;;5.88;72.79;100014.47;1086286;54;20138;-78
2022/02/22 02:57:58;;;;;;;9.00;1.85;;;;;;;5.99;72.35;99994.25;1086180;54;20043;-78
2022/02/22 02:59:04;;;;;;;8.40;1.85;;;;;;;5.95;72.73;99998.94;1086394;54;20073;-77
2022/02/22 03:00:08;;;;;;;6.28;1.55;;;;;;;5.96;72.40;100003.25;1086241;54;20065;-79
2022/02/22 03:01:12;;;;;;;8.80;1.90;;;;;;;6.09;72.21;100000.59;1086275;54;20131;-78
2022/02/22 03:02:17;;;;;;;6.00;1.42;;;;;;;6.13;72.03;100006.50;1086142;54;20038;-78
2022/02/22 03:03:18;;;;;;;7.38;1.98;;;;;;;5.94;72.21;100003.38;1086121;54;20042;-77
2022/02/22 03:04:22;;;;;;;7.68;1.70;;;;;;;6.05;72.25;100005.25;1087074;54;20058;-76
2022/02/22 03:05:24;;;;;;;8.90;2.10;;;;;;;6.01;72.23;100002.94;1087148;54;20069;-77
2022/02/22 03:06:28;;;;;;;8.02;2.00;;;;;;;6.04;72.51;100008.03;1086987;54;20065;-77
2022/02/22 03:07:30;;;;;;;9.57;2.33;;;;;;;5.98;72.41;100011.97;1085350;54;20035;-79
2022/02/22 03:08:34;;;;;;;11.00;2.60;;;;;;;5.78;72.60;100003.69;1084905;54;20045;-78
2022/02/22 03:09:38;;;;;;;7.07;1.98;;;;;;;5.91;72.73;100002.78;1085050;54;20039;-78
2022/02/22 03:10:43;;;;;;;13.07;2.08;;;;;;;5.84;72.93;100004.22;1085028;54;20062;-78
2022/02/22 03:11:47;;;;;;;11.55;2.88;;;;;;;5.82;72.95;100003.47;1085243;54;20036;-78
2022/02/22 03:12:51;;;;;;;8.43;2.22;;;;;;;5.79;72.90;100007.22;1085189;54;20050;-77
2022/02/22 03:13:52;;;;;;;8.80;2.45;;;;;;;5.75;73.07;100005.72;1085072;54;20042;-78
2022/02/22 03:14:57;;;;;;;16.10;2.80;;;;;;;5.71;72.79;100015.72;1085278;54;20639;-77
2022/02/22 03:15:58;;;;;;;7.85;1.90;;;;;;;5.70;72.63;100016.69;1084990;54;20042;-78
2022/02/22 03:17:02;;;;;;;7.28;1.92;;;;;;;5.84;72.51;100006.88;1085156;54;20038;-77
2022/02/22 03:18:04;;;;;;;7.18;2.08;;;;;;;5.88;72.02;100014.47;1085970;39;20683;-78
2022/02/22 03:19:11;;;;;;;6.75;1.73;;;;;;;5.91;71.80;100014.22;1085613;54;20038;-78
2022/02/22 03:20:15;;;;;;;9.70;2.20;;;;;;;5.81;72.01;100023.00;1085563;54;20088;-78
2022/02/22 03:21:16;;;;;;;11.30;2.10;;;;;;;5.71;72.30;100018.38;1085444;54;20061;-77
2022/02/22 03:22:20;;;;;;;11.90;2.95;;;;;;;5.73;72.23;100024.44;1085352;54;20035;-79
2022/02/22 03:23:22;;;;;;;10.95;2.30;;;;;;;5.72;72.40;100017.44;1085777;47;20043;-77
2022/02/22 03:24:26;;;;;;;11.68;2.47;;;;;;;5.71;72.43;100025.50;1086023;39;20445;-77
2022/02/22 03:25:31;;;;;;;10.43;2.25;;;;;;;5.73;72.46;100029.72;1085653;46;20038;-77
2022/02/22 03:26:36;;;;;;;12.70;2.58;;;;;;;5.77;72.32;100028.53;1085754;46;20589;-78
2022/02/22 03:27:37;;;;;;;8.25;1.85;;;;;;;5.75;72.46;100030.47;1085441;54;20049;-78
2022/02/22 03:28:42;;;;;;;10.95;2.58;;;;;;;5.82;72.06;100035.31;1085505;54;20049;-78
2022/02/22 03:29:43;;;;;;;7.78;2.20;;;;;;;5.75;72.69;100038.44;1085628;54;20732;-78
2022/02/22 03:30:48;;;;;;;8.82;2.63;;;;;;;5.89;71.94;100032.09;1085414;54;20627;-78
2022/02/22 03:31:50;;;;;;;8.10;2.20;;;;;;;5.91;72.32;100034.63;1086283;39;20477;-78
2022/02/22 03:32:55;;;;;;;7.72;1.70;;;;;;;5.74;72.29;100033.22;1084673;54;20042;-78
2022/02/22 03:33:58;;;;;;;9.18;2.03;;;;;;;5.78;72.39;100040.00;1085244;54;20050;-78
2022/02/22 03:35:02;;;;;;;8.85;2.33;;;;;;;5.78;72.52;100040.00;1085457;54;20038;-78
2022/02/22 03:36:04;;;;;;;11.02;2.10;;;;;;;5.87;72.43;100041.97;1084999;54;20085;-78
2022/02/22 03:37:10;;;;;;;12.40;2.42;;;;;;;5.83;72.45;100037.00;1086735;39;20465;-77
2022/02/22 03:38:11;;;;;;;6.72;2.05;;;;;;;5.94;72.09;100035.22;1086759;54;20066;-77
2022/02/22 03:39:17;;;;;;;10.50;2.15;;;;;;;5.79;72.50;100041.69;1086853;46;20046;-79
2022/02/22 03:40:19;;;;;;;11.23;2.15;;;;;;;5.86;72.07;100047.38;1086160;54;20074;-78
2022/02/22 03:41:27;;;;;;;10.95;2.72;;;;;;;5.83;72.05;100043.16;1085453;54;20094;-79
2022/02/22 03:42:28;;;;;;;10.93;2.20;;;;;;;5.93;71.84;100048.63;1084859;54;20110;-78
2022/02/22 03:43:33;;;;;;;5.90;1.55;;;;;;;5.97;71.62;100055.38;1085177;54;20038;-77
2022/02/22 03:44:34;;;;;;;10.10;2.38;;;;;;;5.92;71.72;100053.06;1084985;54;20046;-79
2022/02/22 03:45:38;;;;;;;12.48;3.10;;;;;;;5.81;71.81;100062.81;1086106;39;20246;-77
2022/02/22 03:46:40;;;;;;;8.93;2.47;;;;;;;5.99;71.58;100066.75;1086667;39;20486;-77
2022/02/22 03:47:45;;;;;;;9.63;2.15;;;;;;;5.89;71.80;100063.06;1085410;54;20038;-78
2022/02/22 03:48:46;;;;;;;7.43;1.92;;;;;;;5.82;71.92;100062.69;1085425;54;20038;-77
2022/02/22 03:49:51;;;;;;;10.35;1.83;;;;;;;5.78;72.15;100066.53;1085024;54;20135;-77
2022/02/22 03:50:53;;;;;;;9.70;2.90;;;;;;;5.72;72.15;100067.81;1085388;54;20043;-78
2022/02/22 03:51:57;;;;;;;12.73;2.20;;;;;;;5.77;72.19;100064.84;1087276;39;20433;-78
2022/02/22 03:52:58;;;;;;;9.32;2.05;;;;;;;5.70;72.31;100072.38;1086119;54;20062;-78
2022/02/22 03:54:03;;;;;;;9.23;2.22;;;;;;;5.82;72.08;100083.06;1085835;54;20039;-77
2022/02/22 03:55:07;;;;;;;8.27;1.95;;;;;;;5.78;72.10;100077.97;1085577;54;20133;-79
2022/02/22 03:56:11;;;;;;;10.63;2.00;;;;;;;5.88;71.72;100085.25;1085832;39;20441;-77
2022/02/22 03:57:15;;;;;;;8.40;1.88;;;;;;;5.91;71.53;100083.22;1085422;54;20069;-78
2022/02/22 03:58:20;;;;;;;9.55;2.58;;;;;;;5.91;71.51;100077.06;1085870;46;20042;-78
2022/02/22 03:59:21;;;;;;;8.02;2.20;;;;;;;5.98;71.48;100083.63;1085706;54;20039;-78
2022/02/22 04:00:28;;;;;;;8.02;2.00;;;;;;;6.01;71.09;100085.22;1086048;54;20034;-77
2022/02/22 04:01:29;;;;;;;7.75;2.17;;;;;;;6.02;71.32;100089.56;1085247;54;20170;-79
2022/02/22 04:02:34;;;;;;;6.93;2.08;;;;;;;5.88;71.64;100094.06;1085993;46;20058;-78
2022/02/22 04:03:35;;;;;;;9.18;2.05;;;;;;;5.80;71.73;100090.28;1085684;54;20106;-79
2022/02/22 04:04:40;;;;;;;8.45;2.08;;;;;;;5.70;71.74;100087.47;1085887;46;20133;-78
2022/02/22 04:05:46;;;;;;;7.15;2.30;;;;;;;5.73;72.10;100100.50;1085517;54;20065;-77
2022/02/22 04:06:47;;;;;;;8.23;2.20;;;;;;;5.81;71.79;100091.97;1087302;39;20880;-77
2022/02/22 04:07:52;;;;;;;9.88;2.33;;;;;;;5.90;71.45;100101.91;1085306;54;20038;-77
2022/02/22 04:08:54;;;;;;;9.35;2.28;;;;;;;5.77;71.60;100101.97;1085953;46;20046;-78
2022/02/22 04:09:58;;;;;;;8.38;1.88;;;;;;;5.91;71.30;100111.56;1086540;46;20042;-78
2022/02/22 04:10:59;;;;;;;6.50;1.73;;;;;;;6.05;70.98;100107.94;1086852;54;20038;-78
2022/02/22 04:12:04;;;;;;;7.25;1.77;;;;;;;6.11;70.51;100114.59;1086390;54;20046;-79
2022/02/22 04:13:08;;;;;;;7.43;1.80;;;;;;;6.13;70.42;100110.03;1086743;39;20511;-79
2022/02/22 04:14:12;;;;;;;8.55;2.13;;;;;;;6.13;70.54;100112.69;1086441;54;20034;-78
2022/02/22 04:15:14;;;;;;;11.35;2.60;;;;;;;6.08;70.55;100116.50;1086362;54;20042;-78
2022/02/22 04:16:18;;;;;;;5.10;1.33;;;;;;;6.08;70.30;100119.16;1086456;54;20041;-79
2022/02/22 04:17:19;;;;;;;9.68;2.03;;;;;;;6.13;70.30;100117.97;1086352;54;20053;-78
2022/02/22 04:18:24;;;;;;;7.30;2.13;;;;;;;6.09;70.19;100112.06;1086281;54;20034;-78
2022/02/22 04:19:25;;;;;;;9.45;1.95;;;;;;;6.17;70.13;100114.13;1086530;54;20038;-79
2022/02/22 04:20:30;;;;;;;6.35;2.83;;;;;;;6.16;70.17;100120.38;1086736;54;20592;-78
2022/02/22 04:21:31;;;;;;;6.88;2.13;;;;;;;5.98;70.12;100117.28;1087913;54;20042;-78
2022/02/22 04:22:35;;;;;;;8.85;2.28;;;;;;;6.09;70.10;100117.38;1087934;54;20030;-78
2022/02/22 04:23:40;;;;;;;5.50;1.70;;;;;;;6.20;69.60;100121.88;1087776;54;20046;-78
2022/02/22 04:24:41;;;;;;;6.22;1.58;;;;;;;6.23;69.55;100124.31;1088018;46;20046;-77
2022/02/22 04:25:45;;;;;;;9.40;2.00;;;;;;;6.05;69.80;100131.81;1087482;54;20045;-78
2022/02/22 04:26:47;;;;;;;11.20;3.03;;;;;;;6.09;69.76;100120.03;1086450;54;20042;-79
2022/02/22 04:27:52;;;;;;;8.05;1.70;;;;;;;6.04;69.81;100130.97;1086273;54;20069;-79
2022/02/22 04:29:00;;;;;;;10.70;2.13;;;;;;;6.07;69.86;100125.44;1086744;54;20639;-77
2022/02/22 04:30:04;;;;;;;8.75;1.60;;;;;;;6.15;69.62;100129.31;1086216;54;20073;-77
2022/02/22 04:31:05;;;;;;;7.25;1.55;;;;;;;6.16;69.61;100125.69;1087853;39;20523;-78
2022/02/22 04:32:10;;;;;;;6.75;1.67;;;;;;;6.03;70.00;100123.97;1086228;54;20057;-78
2022/02/22 04:33:15;;;;;;;6.57;1.40;;;;;;;6.11;70.24;100128.69;1086405;54;20110;-78
2022/02/22 04:34:16;;;;;;;10.00;3.15;;;;;;;6.11;70.03;100128.69;1086482;54;20061;-78
2022/02/22 04:35:20;;;;;;;8.57;2.08;;;;;;;6.16;70.22;100128.34;1086527;54;20061;-78
2022/02/22 04:36:24;;;;;;;8.15;1.80;;;;;;;6.03;70.26;100128.41;1086313;54;20049;-78
2022/02/22 04:37:26;;;;;;;7.28;2.35;;;;;;;6.09;70.47;100134.13;1086289;54;20930;-78
2022/02/22 04:38:31;;;;;;;8.43;2.20;;;;;;;6.03;70.82;100129.28;1086663;54;20043;-78
2022/02/22 04:39:32;;;;;;;7.43;1.80;;;;;;;6.04;70.65;100138.09;1086216;54;20042;-78
2022/02/22 04:40:36;;;;;;;10.70;2.15;;;;;;;6.07;70.67;100132.56;1086050;54;20034;-78
2022/02/22 04:41:38;;;;;;;8.13;2.00;;;;;;;6.01;71.05;100136.50;1086298;39;20494;-78
2022/02/22 04:42:42;;;;;;;6.05;1.70;;;;;;;6.12;70.73;100142.84;1086234;54;20038;-78
2022/02/22 04:43:44;;;;;;;7.60;1.95;;;;;;;6.04;70.97;100133.63;1086375;54;20038;-76
2022/02/22 04:44:50;;;;;;;6.60;1.88;;;;;;;6.12;70.74;100142.84;1086355;54;20027;-78
2022/02/22 04:45:52;;;;;;;7.82;1.90;;;;;;;6.03;70.74;100139.91;1086437;54;20034;-78
2022/02/22 04:46:56;;;;;;;10.02;2.97;;;;;;;5.93;71.16;100139.69;1086797;54;20046;-77
2022/02/22 04:47:58;;;;;;;8.82;2.17;;;;;;;5.95;71.14;100142.25;1086376;54;20042;-77
2022/02/22 04:49:08;;;;;;;7.43;2.17;;;;;;;5.86;71.42;100141.09;1086439;54;20042;-78
2022/02/22 04:50:10;;;;;;;14.20;3.17;;;;;;;5.74;71.54;100145.50;1086760;47;20622;-77
2022/02/22 04:51:14;;;;;;;10.15;2.50;;;;;;;5.75;71.84;100149.84;1086892;39;20539;-77
2022/02/22 04:52:15;;;;;;;6.90;1.88;;;;;;;5.80;71.63;100146.88;1086418;54;20042;-78
2022/02/22 04:53:20;;;;;;;8.32;2.40;;;;;;;5.90;71.29;100165.59;1086460;54;20110;-78
2022/02/22 04:54:21;;;;;;;9.65;2.53;;;;;;;5.86;71.55;100157.00;1086396;54;20619;-78
2022/02/22 04:55:25;;;;;;;6.68;2.45;;;;;;;5.77;71.63;100150.56;1086441;54;21035;-76
2022/02/22 04:56:28;;;;;;;5.00;1.73;;;;;;;5.84;71.57;100150.13;1085983;54;20042;-77
2022/02/22 04:57:32;;;;;;;8.15;2.22;;;;;;;5.93;71.30;100144.16;1086164;54;20746;-78
2022/02/22 04:58:34;;;;;;;7.50;1.80;;;;;;;5.98;71.20;100152.63;1086618;54;20046;-77
2022/02/22 04:59:38;;;;;;;7.03;1.90;;;;;;;5.98;71.20;100154.44;1086301;54;20095;-77